createdAt,value
2022-12-12T00:28:02.576Z,-1.54
2022-12-12T01:22:19.694Z,-1.41
2022-12-12T01:47:13.108Z,-1.34
2022-12-12T03:24:35.179Z,-0.79
2022-12-12T04:07:17.105Z,-0.39
2022-12-12T04:17:58.877Z,-0.24
2022-12-12T04:33:01.277Z,-0.14
2022-12-12T04:44:23.276Z,-0.16
2022-12-12T05:00:23.918Z,-0.09
2022-12-12T06:59:31.295Z,-0.05
2022-12-12T07:01:58.792Z,-0.07
2022-12-12T07:04:26.150Z,-0.14
2022-12-12T07:06:53.703Z,-0.14
2022-12-12T07:09:20.909Z,-0.15
2022-12-12T07:11:48.199Z,-0.09
2022-12-12T07:14:15.379Z,-0.05
2022-12-12T07:16:42.566Z,-0.02
2022-12-12T07:19:09.763Z,0.03
2022-12-12T07:21:36.889Z,0.00
2022-12-12T07:24:04.130Z,0.02
2022-12-12T07:26:31.768Z,-0.03
2022-12-12T07:28:58.979Z,-0.01
2022-12-12T07:31:26.544Z,0.07
2022-12-12T07:33:54.827Z,0.05
2022-12-12T07:36:21.994Z,0.06
2022-12-12T07:38:49.134Z,0.08
2022-12-12T07:41:18.801Z,0.04
2022-12-12T07:43:46.331Z,0.09
2022-12-12T07:46:16.809Z,-0.01
2022-12-12T07:48:44.577Z,-0.02
2022-12-12T07:51:12.255Z,-0.04
2022-12-12T07:53:39.331Z,-0.05
2022-12-12T07:56:11.579Z,-0.08
2022-12-12T07:58:39.187Z,-0.16
2022-12-12T08:01:15.345Z,-0.10
2022-12-12T08:03:44.110Z,-0.06
2022-12-12T08:06:12.323Z,-0.08
2022-12-12T08:08:39.531Z,-0.13
2022-12-12T08:11:08.438Z,-0.08
2022-12-12T08:13:36.787Z,-0.06
2022-12-12T08:16:05.238Z,-0.01
2022-12-12T08:18:32.928Z,0.05
2022-12-12T08:21:00.214Z,0.03
2022-12-12T08:23:27.389Z,0.05
2022-12-12T08:25:54.495Z,0.07
2022-12-12T08:28:21.655Z,0.02
2022-12-12T08:30:50.449Z,-0.01
2022-12-12T08:33:18.136Z,-0.02
2022-12-12T08:35:45.840Z,-0.03
2022-12-12T08:38:13.353Z,-0.03
2022-12-12T08:40:41.459Z,-0.12
2022-12-12T08:43:09.679Z,-0.17
2022-12-12T08:45:40.147Z,-0.10
2022-12-12T08:48:07.522Z,-0.07
2022-12-12T08:50:34.871Z,-0.07
2022-12-12T08:53:02.095Z,-0.07
2022-12-12T08:55:29.188Z,-0.15
2022-12-12T08:57:56.317Z,-0.07
2022-12-12T09:00:23.719Z,-0.01
2022-12-12T09:02:50.962Z,0.04
2022-12-12T09:05:18.232Z,-0.08
2022-12-12T09:07:45.338Z,-0.14
2022-12-12T09:10:12.469Z,-0.05
2022-12-12T09:12:41.929Z,-0.05
2022-12-12T09:15:09.758Z,-0.03
2022-12-12T09:17:36.894Z,-0.11
2022-12-12T09:20:04.466Z,-0.19
2022-12-12T09:22:31.577Z,-0.08
2022-12-12T09:24:58.735Z,-0.13
2022-12-12T09:27:26.258Z,-0.10
2022-12-12T09:29:53.351Z,-0.19
2022-12-12T09:32:24.736Z,-0.22
2022-12-12T09:34:52.184Z,-0.31
2022-12-12T09:37:19.439Z,-0.34
2022-12-12T09:39:46.587Z,-0.29
2022-12-12T09:42:29.210Z,-0.26
2022-12-12T09:45:00.707Z,-0.18
2022-12-12T09:47:36.384Z,-0.24
2022-12-12T09:50:23.913Z,-0.29
2022-12-12T09:52:51.347Z,-0.18
2022-12-12T09:55:25.737Z,-0.25
2022-12-12T09:58:03.809Z,-0.28
2022-12-12T10:00:34.693Z,-0.32
2022-12-12T10:03:22.978Z,-0.18
2022-12-12T10:06:01.919Z,-0.29
2022-12-12T10:08:49.562Z,-0.12
2022-12-12T10:11:41.941Z,-0.20
2022-12-12T10:14:10.508Z,-0.28
2022-12-12T10:16:38.529Z,-0.31
2022-12-12T10:19:19.850Z,-0.28
2022-12-12T10:21:48.306Z,-0.22
2022-12-12T10:24:40.460Z,-0.23
2022-12-12T10:27:12.977Z,-0.14
2022-12-12T10:29:46.080Z,-0.08
2022-12-12T10:32:28.384Z,-0.08
2022-12-12T10:34:55.524Z,-0.16
2022-12-12T10:37:29.072Z,-0.13
2022-12-12T10:40:14.678Z,0.03
2022-12-12T10:42:49.578Z,0.13
2022-12-12T10:45:52.371Z,0.12
2022-12-12T10:48:19.933Z,0.13
2022-12-12T10:50:56.363Z,0.12
2022-12-12T10:53:23.545Z,0.16
2022-12-12T10:55:57.010Z,0.31
2022-12-12T10:58:30.812Z,0.54
2022-12-12T11:01:03.551Z,0.76
2022-12-12T11:03:42.746Z,0.97
2022-12-12T11:06:18.678Z,1.04
2022-12-12T11:08:57.937Z,1.30
2022-12-12T11:11:27.881Z,1.34
2022-12-12T11:14:00.308Z,1.55
2022-12-12T11:16:31.098Z,1.61
2022-12-12T11:18:59.536Z,1.58
2022-12-12T11:21:28.252Z,1.40
2022-12-12T11:23:56.908Z,1.57
2022-12-12T11:26:24.508Z,1.74
2022-12-12T11:29:02.535Z,1.92
2022-12-12T11:31:31.919Z,1.69
2022-12-12T11:34:01.962Z,1.59
2022-12-12T11:36:36.037Z,1.75
2022-12-12T11:39:16.850Z,1.98
2022-12-12T11:42:00.712Z,1.76
2022-12-12T11:44:33.270Z,1.61
2022-12-12T11:47:18.747Z,1.63
2022-12-12T11:49:47.640Z,1.59
2022-12-12T11:52:25.056Z,1.28
2022-12-12T11:54:53.682Z,1.20
2022-12-12T11:57:39.292Z,1.06
2022-12-12T12:00:12.872Z,1.01
2022-12-12T12:03:05.238Z,0.79
2022-12-12T12:05:47.882Z,0.60
2022-12-12T12:08:40.750Z,0.45
2022-12-12T12:11:27.245Z,0.55
2022-12-12T12:14:03.454Z,0.55
2022-12-12T12:16:52.150Z,0.23
2022-12-12T12:19:44.178Z,0.08
2022-12-12T12:22:17.156Z,-0.12
2022-12-12T12:25:03.831Z,-0.22
2022-12-12T12:27:38.691Z,-0.15
2022-12-12T12:30:24.758Z,-0.26
2022-12-12T12:32:55.001Z,-0.10
2022-12-12T12:35:31.183Z,0.01
2022-12-12T12:38:07.157Z,0.13
2022-12-12T12:40:43.065Z,0.21
2022-12-12T12:43:25.092Z,0.04
2022-12-12T12:46:11.806Z,-0.19
2022-12-12T12:48:49.829Z,-0.20
2022-12-12T12:51:52.991Z,-0.12
2022-12-12T12:54:25.885Z,-0.15
2022-12-12T12:57:04.480Z,-0.22
2022-12-12T12:59:35.646Z,-0.27
2022-12-12T13:02:12.185Z,-0.35
2022-12-12T13:05:07.290Z,-0.36
2022-12-12T13:07:50.071Z,-0.39
2022-12-12T13:10:23.863Z,-0.42
2022-12-12T13:12:57.804Z,-0.42
2022-12-12T13:15:34.935Z,-0.48
2022-12-12T13:18:05.295Z,-0.57
2022-12-12T13:20:35.145Z,-0.58
2022-12-12T13:23:14.505Z,-0.55
2022-12-12T13:26:08.605Z,-0.46
2022-12-12T13:28:40.687Z,-0.39
2022-12-12T13:31:55.415Z,-0.35
2022-12-12T13:34:24.364Z,-0.27
2022-12-12T13:36:51.997Z,-0.36
2022-12-12T13:39:30.123Z,-0.46
2022-12-12T13:42:01.134Z,-0.52
2022-12-12T13:44:36.673Z,-0.64
2022-12-12T13:47:35.514Z,-0.71
2022-12-12T13:50:09.196Z,-0.61
2022-12-12T13:52:43.411Z,-0.48
2022-12-12T13:55:13.656Z,-0.54
2022-12-12T13:58:16.690Z,-0.68
2022-12-12T14:00:43.946Z,-0.71
2022-12-12T14:03:11.110Z,-0.75
2022-12-12T14:06:08.046Z,-0.83
2022-12-12T14:08:36.926Z,-0.93
2022-12-12T14:11:07.604Z,-1.07
2022-12-12T14:13:45.215Z,-1.09
2022-12-12T14:16:25.813Z,-1.13
2022-12-12T14:18:59.835Z,-1.09
2022-12-12T14:21:42.663Z,-1.23
2022-12-12T14:24:34.355Z,-1.19
2022-12-12T14:27:07.689Z,-1.21
2022-12-12T14:29:39.609Z,-1.27
2022-12-12T14:32:12.519Z,-1.32
2022-12-12T14:35:01.224Z,-1.37
2022-12-12T14:54:36.931Z,-1.59
2022-12-12T15:10:45.854Z,-1.67
2022-12-12T15:26:44.684Z,-1.63
2022-12-12T18:22:02.247Z,-1.59
2022-12-12T18:24:29.923Z,-1.70
2022-12-12T18:26:59.178Z,-1.72
2022-12-12T18:29:26.737Z,-1.70
2022-12-12T18:31:54.134Z,-1.71
2022-12-12T18:34:21.396Z,-1.63
2022-12-12T18:49:37.208Z,-1.83
2022-12-12T19:09:47.108Z,-1.96
2022-12-12T20:17:00.370Z,-2.30
2022-12-12T23:33:59.917Z,-1.74
2022-12-12T23:36:36.102Z,-1.75
